createdAt,value
2023-04-15T00:01:42.367Z,6.25
2023-04-15T00:04:08.771Z,6.70
2023-04-15T00:06:37.104Z,5.85
2023-04-15T00:09:03.732Z,5.82
2023-04-15T00:11:30.318Z,6.40
2023-04-15T00:13:56.790Z,6.32
2023-04-15T00:16:24.757Z,5.80
2023-04-15T00:18:51.146Z,5.63
2023-04-15T00:21:17.562Z,6.18
2023-04-15T00:23:43.922Z,5.35
2023-04-15T00:26:10.291Z,5.70
2023-04-15T00:28:36.656Z,7.50
2023-04-15T00:31:03.080Z,5.93
2023-04-15T00:33:30.827Z,6.63
2023-04-15T00:35:57.353Z,5.32
2023-04-15T00:38:23.711Z,5.93
2023-04-15T00:40:50.130Z,6.35
2023-04-15T00:43:16.873Z,5.90
2023-04-15T00:45:43.299Z,6.65
2023-04-15T00:48:10.746Z,6.45
2023-04-15T00:50:38.636Z,8.38
2023-04-15T00:53:05.031Z,5.80
2023-04-15T00:55:31.482Z,7.70
2023-04-15T00:57:58.000Z,7.57
2023-04-15T01:00:24.792Z,6.97
2023-04-15T01:02:51.276Z,9.13
2023-04-15T01:05:17.945Z,8.23
2023-04-15T01:07:46.944Z,8.50
2023-04-15T01:10:13.317Z,10.43
2023-04-15T01:12:40.326Z,7.60
2023-04-15T01:15:08.486Z,7.90
2023-04-15T01:17:35.174Z,8.50
2023-04-15T01:20:02.099Z,8.40
2023-04-15T01:22:28.633Z,8.65
2023-04-15T01:25:03.952Z,9.40
2023-04-15T01:27:32.488Z,7.95
2023-04-15T01:29:58.851Z,8.57
2023-04-15T01:32:25.407Z,9.30
2023-04-15T01:34:51.756Z,8.70
2023-04-15T01:37:18.339Z,11.07
2023-04-15T01:39:44.772Z,9.48
2023-04-15T01:42:11.231Z,10.57
2023-04-15T01:44:38.916Z,13.00
2023-04-15T01:47:05.306Z,10.48
2023-04-15T01:49:31.952Z,11.10
2023-04-15T01:51:58.292Z,11.68
2023-04-15T01:54:24.716Z,12.13
2023-04-15T01:56:51.122Z,11.95
2023-04-15T01:59:17.477Z,10.45
2023-04-15T02:01:45.213Z,10.57
2023-04-15T02:04:11.733Z,10.15
2023-04-15T02:06:38.112Z,10.43
2023-04-15T02:09:04.483Z,10.18
2023-04-15T02:11:30.820Z,10.18
2023-04-15T02:13:57.215Z,10.45
2023-04-15T02:16:23.623Z,11.70
2023-04-15T02:18:51.314Z,10.63
2023-04-15T02:21:17.747Z,12.65
2023-04-15T02:23:44.350Z,10.52
2023-04-15T02:26:10.700Z,10.95
2023-04-15T02:28:37.032Z,11.00
2023-04-15T02:31:05.716Z,12.00
2023-04-15T02:33:32.099Z,11.88
2023-04-15T02:35:59.789Z,12.70
2023-04-15T02:38:26.178Z,12.05
2023-04-15T02:40:52.553Z,12.43
2023-04-15T02:43:18.927Z,12.60
2023-04-15T02:45:46.096Z,13.00
2023-04-15T02:48:12.517Z,14.77
2023-04-15T02:50:39.762Z,14.63
2023-04-15T02:53:07.786Z,16.90
2023-04-15T02:55:34.152Z,12.00
2023-04-15T02:58:00.501Z,15.35
2023-04-15T03:00:27.311Z,13.93
2023-04-15T03:02:58.916Z,15.18
2023-04-15T03:05:25.761Z,13.40
2023-04-15T03:07:52.995Z,14.52
2023-04-15T03:10:21.004Z,14.93
2023-04-15T03:12:47.578Z,15.88
2023-04-15T03:15:14.309Z,16.10
2023-04-15T03:17:40.804Z,16.27
2023-04-15T03:20:07.853Z,16.23
2023-04-15T03:22:34.435Z,15.63
2023-04-15T03:25:00.775Z,17.70
2023-04-15T03:27:28.473Z,16.02
2023-04-15T03:29:54.879Z,15.55
2023-04-15T03:32:21.281Z,16.38
2023-04-15T03:34:47.668Z,16.95
2023-04-15T03:37:14.104Z,18.45
2023-04-15T03:39:40.439Z,18.58
2023-04-15T03:42:06.789Z,17.35
2023-04-15T03:44:34.498Z,17.92
2023-04-15T03:47:00.855Z,18.15
2023-04-15T03:49:27.214Z,18.50
2023-04-15T03:51:53.587Z,17.95
2023-04-15T03:54:19.925Z,19.00
2023-04-15T03:56:46.265Z,19.60
2023-04-15T03:59:12.718Z,20.38
2023-04-15T04:01:40.391Z,19.02
2023-04-15T04:04:07.039Z,18.25
2023-04-15T04:06:33.610Z,19.83
2023-04-15T04:09:00.136Z,21.45
2023-04-15T04:11:26.784Z,26.08
2023-04-15T04:13:53.192Z,22.20
2023-04-15T04:16:19.662Z,20.92
2023-04-15T04:18:47.527Z,19.42
2023-04-15T04:21:14.084Z,20.02
2023-04-15T04:23:40.574Z,21.13
2023-04-15T04:26:06.992Z,22.23
2023-04-15T04:28:33.433Z,20.98
2023-04-15T04:31:00.308Z,20.88
2023-04-15T04:33:26.698Z,22.35
2023-04-15T04:35:54.434Z,21.35
2023-04-15T04:38:20.845Z,20.20
2023-04-15T04:40:47.249Z,21.33
2023-04-15T04:43:13.645Z,21.23
2023-04-15T04:45:40.043Z,21.98
2023-04-15T04:48:06.504Z,21.83
2023-04-15T04:50:33.049Z,19.80
2023-04-15T04:53:00.769Z,22.55
2023-04-15T04:55:27.439Z,23.00
2023-04-15T04:57:53.885Z,24.75
2023-04-15T05:00:20.545Z,22.23
2023-04-15T05:02:47.051Z,23.05
2023-04-15T05:05:13.547Z,24.85
2023-04-15T05:07:39.910Z,23.77
2023-04-15T05:10:09.060Z,20.52
2023-04-15T05:12:35.813Z,24.63
2023-04-15T05:15:02.215Z,19.85
2023-04-15T05:17:28.687Z,24.98
2023-04-15T05:19:55.292Z,22.65
2023-04-15T05:22:21.703Z,24.33
2023-04-15T05:24:48.132Z,20.65
2023-04-15T05:27:15.868Z,21.65
2023-04-15T05:29:42.237Z,23.15
2023-04-15T05:32:08.637Z,20.38
2023-04-15T05:34:35.262Z,22.20
2023-04-15T05:37:01.681Z,22.20
2023-04-15T05:39:28.470Z,19.90
2023-04-15T05:41:55.100Z,27.33
2023-04-15T05:44:22.875Z,20.92
2023-04-15T05:46:49.368Z,23.08
2023-04-15T05:49:15.786Z,17.95
2023-04-15T05:51:42.259Z,17.05
2023-04-15T05:54:09.014Z,18.02
2023-04-15T05:56:35.607Z,18.67
2023-04-15T05:59:02.354Z,16.40
2023-04-15T06:01:30.299Z,16.65
2023-04-15T06:03:57.548Z,17.80
2023-04-15T06:06:24.143Z,20.08
2023-04-15T06:08:51.133Z,16.38
2023-04-15T06:11:17.819Z,17.92
2023-04-15T06:13:44.336Z,15.70
2023-04-15T06:16:10.784Z,15.13
2023-04-15T06:18:38.573Z,15.95
2023-04-15T06:21:05.116Z,15.52
2023-04-15T06:23:34.078Z,20.52
2023-04-15T06:26:00.475Z,12.52
2023-04-15T06:28:26.913Z,12.40
2023-04-15T06:30:53.650Z,16.40
2023-04-15T06:33:20.035Z,13.70
2023-04-15T06:35:47.790Z,14.43
2023-04-15T06:38:14.214Z,11.07
2023-04-15T06:40:40.659Z,10.48
2023-04-15T06:43:07.047Z,13.25
2023-04-15T06:45:33.468Z,10.55
2023-04-15T06:47:59.952Z,11.02
2023-04-15T06:50:26.541Z,10.95
2023-04-15T06:52:55.843Z,10.95
2023-04-15T06:55:22.787Z,11.45
2023-04-15T06:57:49.205Z,9.38
2023-04-15T07:00:15.829Z,10.18
2023-04-15T07:02:42.369Z,14.50
2023-04-15T07:05:09.165Z,9.60
2023-04-15T07:07:35.525Z,9.95
2023-04-15T07:10:03.545Z,10.25
2023-04-15T07:12:29.945Z,8.52
2023-04-15T07:14:56.367Z,10.82
2023-04-15T07:17:22.996Z,10.05
2023-04-15T07:19:49.420Z,8.82
2023-04-15T07:22:15.923Z,8.10
2023-04-15T07:24:42.349Z,8.48
2023-04-15T07:27:10.054Z,6.47
2023-04-15T07:29:36.424Z,7.25
2023-04-15T07:32:03.454Z,7.25
2023-04-15T07:34:31.440Z,9.00
2023-04-15T07:36:58.986Z,7.72
2023-04-15T07:39:25.357Z,7.93
2023-04-15T07:41:51.727Z,7.50
2023-04-15T07:44:19.473Z,6.35
2023-04-15T07:46:45.881Z,6.60
2023-04-15T07:49:12.248Z,6.07
2023-04-15T07:51:38.682Z,6.25
2023-04-15T07:54:05.127Z,5.78
2023-04-15T07:56:31.573Z,5.07
2023-04-15T07:59:00.782Z,5.18
2023-04-15T08:01:28.707Z,5.93
2023-04-15T08:03:55.247Z,6.03
2023-04-15T08:06:21.708Z,6.20
2023-04-15T08:08:48.242Z,4.93
2023-04-15T08:11:14.692Z,5.55
2023-04-15T08:13:41.087Z,5.38
2023-04-15T08:16:17.842Z,5.15
2023-04-15T08:18:45.701Z,5.68
2023-04-15T08:21:12.085Z,4.28
2023-04-15T08:23:38.925Z,4.72
2023-04-15T08:26:05.748Z,4.32
2023-04-15T08:28:32.297Z,5.13
2023-04-15T08:30:58.874Z,4.80
2023-04-15T08:33:25.546Z,3.85
2023-04-15T08:35:53.246Z,4.30
2023-04-15T08:38:19.643Z,3.88
2023-04-15T08:40:46.437Z,4.35
2023-04-15T08:43:18.593Z,6.90
2023-04-15T08:45:46.587Z,6.63
2023-04-15T08:48:15.149Z,4.88
2023-04-15T08:50:41.792Z,4.68
2023-04-15T08:53:10.517Z,4.63
2023-04-15T08:55:42.680Z,3.70
2023-04-15T08:58:09.981Z,5.13
2023-04-15T09:00:36.582Z,4.75
2023-04-15T09:03:04.460Z,5.20
2023-04-15T09:05:32.524Z,3.85
2023-04-15T09:07:59.073Z,4.88
2023-04-15T09:10:26.997Z,5.68
2023-04-15T09:12:53.407Z,4.65
2023-04-15T09:15:20.430Z,5.35
2023-04-15T09:17:47.203Z,5.25
2023-04-15T09:20:15.526Z,4.50
2023-04-15T09:22:43.305Z,5.60
2023-04-15T09:25:27.933Z,5.07
2023-04-15T09:27:55.698Z,5.45
2023-04-15T09:30:22.520Z,5.10
2023-04-15T09:32:50.102Z,6.60
2023-04-15T09:35:16.535Z,6.03
2023-04-15T09:37:43.028Z,5.50
2023-04-15T09:40:10.585Z,6.30
2023-04-15T09:42:54.235Z,5.85
2023-04-15T09:45:22.100Z,8.07
2023-04-15T09:47:48.615Z,7.78
2023-04-15T09:50:15.421Z,7.50
2023-04-15T09:52:43.035Z,7.95
2023-04-15T09:55:10.093Z,7.30
2023-04-15T09:57:39.425Z,8.65
2023-04-15T10:00:08.652Z,9.00
2023-04-15T10:02:36.875Z,8.50
2023-04-15T10:05:03.940Z,9.05
2023-04-15T10:07:30.681Z,9.48
2023-04-15T10:09:59.672Z,9.95
2023-04-15T10:12:27.505Z,10.82
2023-04-15T10:14:58.907Z,11.98
2023-04-15T10:17:27.921Z,11.32
2023-04-15T10:19:55.291Z,10.75
2023-04-15T10:22:22.699Z,12.43
2023-04-15T10:24:50.292Z,13.20
2023-04-15T10:27:17.922Z,14.73
2023-04-15T10:29:44.664Z,13.75
2023-04-15T10:32:13.375Z,14.25
2023-04-15T10:34:40.795Z,17.92
2023-04-15T10:37:10.004Z,18.17
2023-04-15T10:39:42.218Z,17.77
2023-04-15T10:42:11.058Z,17.75
2023-04-15T10:44:38.008Z,19.02
2023-04-15T10:47:10.368Z,20.23
2023-04-15T10:49:43.536Z,19.88
2023-04-15T10:52:10.000Z,21.45
2023-04-15T10:54:36.472Z,20.75
2023-04-15T10:57:14.408Z,22.40
2023-04-15T11:00:09.531Z,22.10
2023-04-15T11:02:41.732Z,24.48
2023-04-15T11:05:10.372Z,32.88
2023-04-15T11:07:39.145Z,25.45
2023-04-15T11:10:54.406Z,27.38
2023-04-15T11:13:25.888Z,23.80
2023-04-15T11:15:56.322Z,29.42
2023-04-15T11:18:25.797Z,28.58
2023-04-15T11:20:55.289Z,28.90
2023-04-15T11:23:29.618Z,33.20
2023-04-15T11:25:56.434Z,31.52
2023-04-15T11:28:25.827Z,31.27
2023-04-15T11:30:52.333Z,32.55
2023-04-15T11:33:18.795Z,41.42
2023-04-15T11:35:45.310Z,32.25
2023-04-15T11:38:14.682Z,30.77
2023-04-15T11:40:43.354Z,36.53
2023-04-15T11:43:12.946Z,33.13
2023-04-15T11:45:48.972Z,31.27
2023-04-15T11:48:15.460Z,37.20
2023-04-15T11:50:41.922Z,33.28
2023-04-15T11:53:09.808Z,43.50
2023-04-15T11:55:45.434Z,36.65
2023-04-15T11:58:16.138Z,35.00
2023-04-15T12:00:47.909Z,37.97
2023-04-15T12:03:18.148Z,45.55
2023-04-15T12:06:07.911Z,37.92
2023-04-15T12:09:07.799Z,47.10
2023-04-15T12:11:37.931Z,41.28
2023-04-15T12:14:07.162Z,40.70
2023-04-15T12:16:37.261Z,41.38
2023-04-15T12:19:17.595Z,43.97
2023-04-15T12:21:46.593Z,48.22
2023-04-15T12:24:12.994Z,45.03
2023-04-15T12:26:46.178Z,45.70
2023-04-15T12:29:13.610Z,46.63
2023-04-15T12:31:51.397Z,50.90
2023-04-15T12:34:20.147Z,51.03
2023-04-15T12:36:46.557Z,48.63
2023-04-15T12:39:13.454Z,50.22
2023-04-15T12:41:40.181Z,52.65
2023-04-15T12:44:08.114Z,50.05
2023-04-15T12:46:34.551Z,50.60
2023-04-15T12:49:01.291Z,51.28
2023-04-15T12:51:27.695Z,48.78
2023-04-15T12:53:54.104Z,52.50
2023-04-15T12:56:20.489Z,47.47
2023-04-15T12:58:46.855Z,50.83
2023-04-15T13:01:14.646Z,42.60
2023-04-15T13:03:41.320Z,49.35
2023-04-15T13:06:07.893Z,48.97
2023-04-15T13:08:34.848Z,45.83
2023-04-15T13:11:03.692Z,36.03
2023-04-15T13:13:30.133Z,44.67
2023-04-15T13:15:56.611Z,43.40
2023-04-15T13:18:24.485Z,40.13
2023-04-15T13:20:51.430Z,40.15
2023-04-15T13:23:18.063Z,38.50
2023-04-15T13:25:45.112Z,39.10
2023-04-15T13:28:11.937Z,35.72
2023-04-15T13:30:38.774Z,35.55
2023-04-15T13:33:05.690Z,36.30
2023-04-15T13:35:33.666Z,38.13
2023-04-15T13:38:01.176Z,33.67
2023-04-15T13:40:27.900Z,30.80
2023-04-15T13:42:54.373Z,33.67
2023-04-15T13:45:20.935Z,32.40
2023-04-15T13:47:47.524Z,32.70
2023-04-15T13:50:14.070Z,30.40
2023-04-15T13:52:41.791Z,34.55
2023-04-15T13:55:19.930Z,31.60
2023-04-15T13:57:47.335Z,28.75
2023-04-15T14:00:14.798Z,31.13
2023-04-15T14:02:49.442Z,28.25
2023-04-15T14:05:16.074Z,26.05
2023-04-15T14:07:42.528Z,26.17
2023-04-15T14:10:09.005Z,25.20
2023-04-15T14:12:35.741Z,25.42
2023-04-15T14:15:02.193Z,24.70
2023-04-15T14:17:28.702Z,25.63
2023-04-15T14:19:56.560Z,23.73
2023-04-15T14:22:22.985Z,24.77
2023-04-15T14:24:49.366Z,27.02
2023-04-15T14:27:15.774Z,27.30
2023-04-15T14:29:42.209Z,21.70
2023-04-15T14:32:11.375Z,23.75
2023-04-15T14:34:39.011Z,24.67
2023-04-15T14:37:06.757Z,23.85
2023-04-15T14:39:33.215Z,23.90
2023-04-15T14:41:59.654Z,20.17
2023-04-15T14:44:26.142Z,22.08
2023-04-15T14:46:52.643Z,21.95
2023-04-15T14:49:19.582Z,22.20
2023-04-15T14:51:45.986Z,24.05
2023-04-15T14:54:13.709Z,20.42
2023-04-15T14:56:40.194Z,23.70
2023-04-15T14:59:06.720Z,26.55
2023-04-15T15:01:33.569Z,22.85
2023-04-15T15:04:00.296Z,22.00
2023-04-15T15:06:26.735Z,19.25
2023-04-15T15:08:53.215Z,21.65
2023-04-15T15:11:20.956Z,20.63
2023-04-15T15:13:47.368Z,19.15
2023-04-15T15:16:14.708Z,20.55
2023-04-15T15:18:41.440Z,17.85
2023-04-15T15:21:07.910Z,18.80
2023-04-15T15:23:34.403Z,16.67
2023-04-15T15:26:00.915Z,17.73
2023-04-15T15:28:28.716Z,18.63
2023-04-15T15:30:55.245Z,18.30
2023-04-15T15:33:21.732Z,18.77
2023-04-15T15:35:48.174Z,20.05
2023-04-15T15:38:14.717Z,20.63
2023-04-15T15:40:41.122Z,22.70
2023-04-15T15:43:07.793Z,24.25
2023-04-15T15:45:35.735Z,33.47
2023-04-15T15:48:02.418Z,40.15
2023-04-15T15:50:29.068Z,43.92
2023-04-15T15:52:55.663Z,28.17
2023-04-15T15:55:22.074Z,27.60
2023-04-15T15:57:48.468Z,25.63
2023-04-15T16:00:15.505Z,26.33
2023-04-15T16:05:13.993Z,29.67
2023-04-15T16:07:40.487Z,30.98
2023-04-15T16:10:07.986Z,28.05
2023-04-15T16:12:35.060Z,24.10
2023-04-15T16:15:01.688Z,24.90
2023-04-15T16:17:28.145Z,27.20
2023-04-15T16:20:00.538Z,26.77
2023-04-15T16:22:27.931Z,29.67
2023-04-15T16:24:54.412Z,28.42
2023-04-15T16:27:20.891Z,26.15
2023-04-15T16:29:47.313Z,26.75
2023-04-15T16:32:13.783Z,26.05
2023-04-15T16:34:40.315Z,26.05
2023-04-15T16:37:08.124Z,26.88
2023-04-15T16:39:34.911Z,29.88
2023-04-15T16:42:01.908Z,28.67
2023-04-15T16:44:28.401Z,30.17
2023-04-15T16:46:54.813Z,28.23
2023-04-15T16:49:21.177Z,26.83
2023-04-15T16:51:47.634Z,29.63
2023-04-15T16:54:15.392Z,28.73
2023-04-15T16:56:41.808Z,27.95
2023-04-15T16:59:08.225Z,33.30
2023-04-15T17:01:34.800Z,26.23
2023-04-15T17:04:01.305Z,24.17
2023-04-15T17:06:27.840Z,23.55
2023-04-15T17:08:54.250Z,19.02
2023-04-15T17:11:21.951Z,22.50
2023-04-15T17:13:48.527Z,25.38
2023-04-15T17:16:14.912Z,26.45
2023-04-15T17:18:41.353Z,26.00
2023-04-15T17:21:07.787Z,26.20
2023-04-15T17:23:34.169Z,29.65
2023-04-15T17:26:00.587Z,28.85
2023-04-15T17:28:28.509Z,25.13
2023-04-15T17:30:55.153Z,27.02
2023-04-15T17:33:55.309Z,26.83
2023-04-15T17:36:08.186Z,23.75
2023-04-15T17:38:34.586Z,20.52
2023-04-15T17:41:01.080Z,18.10
2023-04-15T17:43:28.784Z,18.02
2023-04-15T17:45:56.203Z,19.98
2023-04-15T17:48:25.077Z,16.85
2023-04-15T17:50:52.065Z,15.75
2023-04-15T17:53:18.610Z,17.98
2023-04-15T17:55:44.992Z,19.08
2023-04-15T17:58:11.512Z,16.27
2023-04-15T18:00:39.212Z,16.10
2023-04-15T18:03:05.727Z,17.88
2023-04-15T18:05:32.532Z,17.35
2023-04-15T18:07:59.053Z,19.40
2023-04-15T18:10:25.457Z,16.15
2023-04-15T18:12:51.834Z,17.33
2023-04-15T18:15:19.098Z,15.45
2023-04-15T18:17:47.810Z,17.58
2023-04-15T18:20:14.327Z,17.58
2023-04-15T18:22:42.120Z,17.67
2023-04-15T18:25:09.004Z,17.27
2023-04-15T18:27:36.544Z,18.73
2023-04-15T18:30:03.144Z,19.90
2023-04-15T18:32:31.817Z,17.17
2023-04-15T18:34:59.928Z,16.08
2023-04-15T18:37:26.424Z,18.13
2023-04-15T18:39:52.845Z,17.80
2023-04-15T18:42:19.278Z,16.42
2023-04-15T18:44:45.696Z,19.55
2023-04-15T18:47:12.178Z,18.23
2023-04-15T18:49:38.609Z,16.52
2023-04-15T18:52:06.463Z,16.92
2023-04-15T18:54:32.879Z,19.95
2023-04-15T18:56:59.304Z,16.88
2023-04-15T18:59:30.145Z,17.17
2023-04-15T19:01:57.773Z,19.33
2023-04-15T19:04:24.185Z,17.00
2023-04-15T19:06:50.828Z,17.15
2023-04-15T19:09:18.549Z,17.48
2023-04-15T19:11:45.075Z,17.48
2023-04-15T19:14:11.526Z,17.58
2023-04-15T19:16:38.049Z,18.65
2023-04-15T19:19:04.666Z,17.42
2023-04-15T19:21:31.963Z,17.40
2023-04-15T19:23:59.391Z,17.35
2023-04-15T19:26:27.263Z,20.77
2023-04-15T19:28:53.762Z,18.33
2023-04-15T19:31:20.304Z,18.73
2023-04-15T19:33:46.855Z,19.30
2023-04-15T19:36:13.241Z,17.60
2023-04-15T19:38:39.633Z,18.77
2023-04-15T19:41:06.184Z,18.88
2023-04-15T19:43:33.861Z,17.65
2023-04-15T19:46:00.305Z,18.13
2023-04-15T19:48:26.956Z,18.33
2023-04-15T19:50:53.419Z,15.95
2023-04-15T19:53:19.828Z,17.63
2023-04-15T19:55:46.246Z,19.17
2023-04-15T19:58:12.636Z,18.73
2023-04-15T20:00:40.346Z,18.10
2023-04-15T20:03:06.896Z,20.13
2023-04-15T20:05:33.310Z,18.27
2023-04-15T20:08:00.764Z,20.23
2023-04-15T20:10:27.185Z,16.73
2023-04-15T20:12:53.682Z,16.45
2023-04-15T20:15:20.759Z,18.02
2023-04-15T20:17:48.516Z,20.35
2023-04-15T20:20:15.250Z,17.42
2023-04-15T20:22:41.770Z,16.25
2023-04-15T20:25:08.758Z,15.45
2023-04-15T20:27:35.188Z,16.80
2023-04-15T20:30:01.667Z,18.67
2023-04-15T20:32:28.319Z,35.03
2023-04-15T20:34:56.230Z,57.58
2023-04-15T20:37:22.594Z,30.35
2023-04-15T20:39:49.160Z,18.10
2023-04-15T20:42:15.533Z,17.00
2023-04-15T20:44:41.909Z,15.02
2023-04-15T20:47:08.495Z,16.17
2023-04-15T20:49:35.845Z,14.85
2023-04-15T20:52:05.034Z,14.85
2023-04-15T20:54:31.462Z,15.32
2023-04-15T20:56:57.976Z,18.25
2023-04-15T20:59:24.506Z,16.15
2023-04-15T21:01:51.133Z,14.35
2023-04-15T21:04:17.575Z,15.40
2023-04-15T21:06:43.965Z,17.08
2023-04-15T21:09:11.664Z,15.32
2023-04-15T21:11:57.430Z,15.57
2023-04-15T21:14:24.488Z,15.57
2023-04-15T21:16:50.940Z,15.57
2023-04-15T21:19:17.348Z,15.75
2023-04-15T21:21:43.812Z,16.70
2023-04-15T21:24:12.635Z,16.77
2023-04-15T21:26:39.168Z,15.75
2023-04-15T21:29:07.919Z,18.80
2023-04-15T21:31:36.044Z,17.55
2023-04-15T21:34:02.451Z,18.85
2023-04-15T21:36:28.893Z,22.55
2023-04-15T21:38:55.302Z,19.20
2023-04-15T21:41:23.114Z,20.77
2023-04-15T21:43:49.575Z,20.58
2023-04-15T21:46:22.868Z,20.17
2023-04-15T21:48:51.218Z,20.42
2023-04-15T21:51:17.648Z,27.02
2023-04-15T21:53:44.054Z,20.90
2023-04-15T21:56:10.504Z,20.48
2023-04-15T21:58:38.206Z,21.77
2023-04-15T22:01:04.840Z,20.83
2023-04-15T22:03:32.490Z,20.55
2023-04-15T22:05:59.121Z,20.38
2023-04-15T22:08:25.530Z,21.23
2023-04-15T22:10:51.909Z,23.10
2023-04-15T22:13:18.293Z,20.98
2023-04-15T22:15:46.164Z,23.33
2023-04-15T22:18:13.121Z,22.05
2023-04-15T22:20:39.953Z,25.63
2023-04-15T22:23:06.375Z,22.38
2023-04-15T22:25:33.154Z,22.10
2023-04-15T22:27:59.594Z,23.27
2023-04-15T22:30:26.440Z,24.30
2023-04-15T22:32:54.230Z,23.38
2023-04-15T22:35:20.654Z,26.17
2023-04-15T22:37:46.997Z,25.13
2023-04-15T22:40:13.950Z,24.58
2023-04-15T22:42:40.315Z,24.27
2023-04-15T22:45:08.222Z,24.95
2023-04-15T22:47:34.658Z,25.17
2023-04-15T22:50:02.394Z,24.60
2023-04-15T22:52:31.014Z,25.30
2023-04-15T22:54:58.056Z,27.50
2023-04-15T22:57:24.803Z,25.80
2023-04-15T22:59:51.271Z,27.88
2023-04-15T23:02:17.950Z,27.45
2023-04-15T23:04:44.562Z,24.90
2023-04-15T23:07:12.364Z,26.27
2023-04-15T23:09:38.893Z,24.45
2023-04-15T23:12:05.548Z,30.05
2023-04-15T23:14:31.937Z,25.88
2023-04-15T23:16:58.459Z,25.98
2023-04-15T23:19:25.007Z,26.67
2023-04-15T23:21:51.477Z,26.58
2023-04-15T23:24:19.168Z,25.33
2023-04-15T23:26:45.508Z,25.27
2023-04-15T23:29:12.012Z,28.38
2023-04-15T23:31:38.494Z,26.55
2023-04-15T23:34:04.935Z,26.90
2023-04-15T23:36:31.296Z,25.83
2023-04-15T23:38:57.666Z,30.23
2023-04-15T23:41:25.363Z,28.60
2023-04-15T23:43:51.831Z,27.13
2023-04-15T23:46:18.242Z,25.88
2023-04-15T23:48:44.612Z,25.50
2023-04-15T23:51:10.970Z,25.73
2023-04-15T23:53:37.355Z,24.88
2023-04-15T23:56:04.345Z,26.58
2023-04-15T23:58:34.003Z,24.77
